Time;durP1;ratioP1;P1;durP2;ratioP2;P2;SDS_P1;SDS_P2;PMS_P1;PMS_P2;Temp;Humidity;BMP_temperature;BMP_pressure;BME280_temperature;BME280_humidity;BME280_pressure;Samples;Min_cycle;Max_cycle;Signal;HPM_P1;HPM_P2
2021/03/12 00:00:43;;;;;;;4.07;1.00;;;;;;;7.66;65.48;96426.53;5034223;28;20032;-79
2021/03/12 00:03:30;;;;;;;2.78;0.55;;;;;;;7.30;65.53;96432.09;5011091;28;20025;-78
2021/03/12 00:05:58;;;;;;;3.20;0.30;;;;;;;7.55;65.09;96430.81;5048380;28;20073;-77
2021/03/12 00:08:27;;;;;;;2.78;0.95;;;;;;;7.68;64.23;96437.44;5029392;28;20111;-77
2021/03/12 00:10:53;;;;;;;2.90;0.50;;;;;;;7.42;64.80;96428.59;5008704;28;20372;-77
2021/03/12 00:13:19;;;;;;;3.70;0.60;;;;;;;7.42;65.11;96433.78;4997024;28;20032;-77
2021/03/12 00:15:46;;;;;;;1.38;0.30;;;;;;;7.85;63.91;96437.34;5018571;28;20033;-77
2021/03/12 00:18:11;;;;;;;3.03;0.63;;;;;;;8.04;63.55;96442.97;5014853;28;20029;-78
2021/03/12 00:20:38;;;;;;;2.60;0.47;;;;;;;8.15;62.99;96443.84;5002446;28;20053;-78
2021/03/12 00:23:05;;;;;;;2.60;0.50;;;;;;;7.86;63.51;96442.28;5030014;28;20035;-78
2021/03/12 00:25:45;;;;;;;5.00;0.88;;;;;;;7.57;63.16;96441.72;5030935;28;20606;-77
2021/03/12 00:28:11;;;;;;;4.72;1.15;;;;;;;8.04;62.25;96453.34;5024638;28;20096;-78
2021/03/12 00:30:38;;;;;;;2.53;0.57;;;;;;;8.14;62.90;96457.81;5025919;28;20025;-78
2021/03/12 00:33:05;;;;;;;2.47;0.77;;;;;;;8.27;62.82;96459.25;5010665;28;20127;-78
2021/03/12 00:35:32;;;;;;;3.75;0.47;;;;;;;8.18;62.68;96469.28;5023455;28;20595;-78
2021/03/12 00:37:58;;;;;;;3.53;0.50;;;;;;;8.11;63.61;96466.13;5000635;28;20025;-78
2021/03/12 00:40:27;;;;;;;3.40;0.63;;;;;;;7.33;66.04;96474.84;5008076;28;20430;-78
2021/03/12 00:42:53;;;;;;;2.10;0.60;;;;;;;7.55;64.10;96477.44;4997563;28;20048;-77
2021/03/12 00:45:19;;;;;;;1.63;0.55;;;;;;;7.84;63.63;96478.03;4998294;28;20025;-77
2021/03/12 00:47:45;;;;;;;2.03;0.40;;;;;;;7.82;63.98;96481.91;5024040;28;20523;-77
2021/03/12 00:50:12;;;;;;;3.63;1.00;;;;;;;7.57;62.74;96479.81;5007289;28;20033;-77
2021/03/12 00:52:38;;;;;;;3.35;0.70;;;;;;;7.81;63.09;96485.50;4990000;28;20267;-77
2021/03/12 00:55:08;;;;;;;2.17;0.50;;;;;;;7.80;62.96;96489.13;5030656;28;20029;-78
2021/03/12 00:57:33;;;;;;;5.95;0.60;;;;;;;8.07;62.07;96476.97;5030774;28;20068;-77
2021/03/12 01:00:01;;;;;;;3.90;0.90;;;;;;;7.98;61.15;96486.19;5014193;28;20036;-76
2021/03/12 01:02:26;;;;;;;3.17;0.73;;;;;;;8.02;61.77;96491.66;5038903;28;20052;-77
2021/03/12 01:04:52;;;;;;;3.45;0.68;;;;;;;8.42;60.75;96496.47;5040870;28;20479;-77
2021/03/12 01:07:17;;;;;;;8.95;1.15;;;;;;;8.13;62.00;96488.16;5030167;28;20056;-77
2021/03/12 01:09:42;;;;;;;3.80;1.10;;;;;;;8.06;61.59;96482.38;5051012;28;20032;-77
2021/03/12 01:12:08;;;;;;;5.70;1.40;;;;;;;8.02;61.43;96479.50;5044753;28;20037;-77
2021/03/12 01:14:33;;;;;;;5.55;1.00;;;;;;;8.30;60.90;96484.69;5017318;28;20029;-77
2021/03/12 01:16:59;;;;;;;6.32;0.90;;;;;;;8.14;61.76;96494.91;5040900;28;20032;-77
2021/03/12 01:19:25;;;;;;;2.50;1.27;;;;;;;8.05;61.66;96486.81;5050841;28;20040;-77
2021/03/12 01:21:50;;;;;;;2.08;0.68;;;;;;;8.01;62.06;96492.72;5031284;28;20055;-77
2021/03/12 01:24:16;;;;;;;4.13;0.57;;;;;;;8.25;61.50;96486.19;5045188;28;20031;-77
2021/03/12 01:26:41;;;;;;;4.55;0.70;;;;;;;8.35;60.86;96488.09;5046839;28;20548;-77
2021/03/12 01:29:07;;;;;;;6.97;1.50;;;;;;;8.36;61.79;96487.09;5032436;28;20071;-77
2021/03/12 01:31:32;;;;;;;2.33;1.33;;;;;;;8.09;60.56;96476.72;5020064;28;20036;-77
2021/03/12 01:33:58;;;;;;;3.15;0.93;;;;;;;8.13;61.40;96482.19;5031234;28;20542;-77
2021/03/12 01:36:23;;;;;;;2.33;0.95;;;;;;;8.06;62.50;96490.16;5033837;28;20439;-77
2021/03/12 01:38:48;;;;;;;4.20;0.70;;;;;;;7.84;61.21;96490.22;5020211;28;20044;-76
2021/03/12 01:41:14;;;;;;;4.93;1.20;;;;;;;8.32;60.29;96490.41;5011008;28;20031;-77
2021/03/12 01:43:39;;;;;;;4.45;0.98;;;;;;;7.92;60.73;96494.97;5041941;28;20060;-77
2021/03/12 01:46:05;;;;;;;4.53;0.95;;;;;;;7.77;60.10;96503.34;5033896;28;20520;-77
2021/03/12 01:48:31;;;;;;;3.90;0.70;;;;;;;7.78;59.06;96502.34;5033623;28;20550;-76
2021/03/12 01:50:58;;;;;;;3.53;0.70;;;;;;;7.94;57.95;96499.91;5014706;28;20079;-77
2021/03/12 01:53:25;;;;;;;1.42;0.40;;;;;;;7.64;58.05;96514.88;5052240;28;20115;-76
2021/03/12 01:55:51;;;;;;;3.30;0.60;;;;;;;7.96;57.51;96534.13;5016876;28;20410;-76
2021/03/12 01:58:18;;;;;;;3.58;0.70;;;;;;;7.85;57.74;96522.88;4995823;28;20538;-76
2021/03/12 02:00:44;;;;;;;4.85;0.60;;;;;;;7.77;58.78;96523.31;5017956;28;20029;-77
2021/03/12 02:03:10;;;;;;;5.45;1.67;;;;;;;7.72;57.83;96533.59;5041349;28;20441;-76
2021/03/12 02:05:36;;;;;;;3.58;1.00;;;;;;;8.01;57.76;96527.19;5009169;28;20040;-77
2021/03/12 02:08:02;;;;;;;2.13;0.40;;;;;;;7.59;57.66;96530.34;5030630;28;20037;-76
2021/03/12 02:10:28;;;;;;;3.30;0.90;;;;;;;7.89;57.42;96544.69;5036191;28;20047;-77
2021/03/12 02:13:18;;;;;;;4.50;0.45;;;;;;;7.11;58.07;96547.31;5034762;28;20475;-76
2021/03/12 02:15:50;;;;;;;5.63;0.90;;;;;;;7.76;58.20;96550.22;5031700;28;20380;-76
2021/03/12 02:18:33;;;;;;;1.83;0.50;;;;;;;7.94;57.79;96557.72;5039310;28;20036;-76
2021/03/12 02:21:09;;;;;;;5.63;0.60;;;;;;;7.76;58.40;96558.81;5019954;28;20029;-77
2021/03/12 02:23:49;;;;;;;5.00;1.08;;;;;;;7.49;57.57;96561.31;5028462;28;20562;-77
2021/03/12 02:26:32;;;;;;;3.13;0.50;;;;;;;7.54;57.47;96563.97;5045265;28;20060;-77
2021/03/12 02:28:59;;;;;;;4.10;0.60;;;;;;;7.91;57.10;96578.91;5039594;28;20060;-76
2021/03/12 02:31:25;;;;;;;3.33;0.82;;;;;;;7.93;56.74;96583.88;5021430;28;20041;-77
2021/03/12 02:33:51;;;;;;;1.00;0.52;;;;;;;8.15;57.24;96582.03;5029524;28;20040;-77
2021/03/12 02:36:21;;;;;;;3.17;1.13;;;;;;;8.16;56.48;96577.66;5029207;28;20156;-77
2021/03/12 02:38:48;;;;;;;4.35;0.73;;;;;;;7.94;57.49;96569.88;5016560;28;20116;-76
2021/03/12 02:41:14;;;;;;;5.35;1.23;;;;;;;8.23;56.29;96580.84;5038391;28;20028;-77
2021/03/12 02:43:39;;;;;;;2.08;0.50;;;;;;;8.29;57.14;96579.84;5045486;28;20031;-77
2021/03/12 02:46:05;;;;;;;3.92;0.65;;;;;;;8.03;56.45;96587.34;5019083;28;20044;-76
2021/03/12 02:48:32;;;;;;;3.05;0.50;;;;;;;8.03;57.54;96576.97;5028651;28;20044;-77
2021/03/12 02:50:57;;;;;;;4.13;0.50;;;;;;;8.03;56.22;96586.56;5024974;28;20573;-77
2021/03/12 02:53:23;;;;;;;4.72;0.98;;;;;;;8.07;56.36;96592.84;5037172;28;20028;-77
2021/03/12 02:55:49;;;;;;;1.95;0.60;;;;;;;7.74;56.87;96591.94;5003286;28;20059;-76
2021/03/12 02:58:14;;;;;;;2.80;1.30;;;;;;;8.10;56.16;96592.34;5053104;28;20546;-76
2021/03/12 03:00:41;;;;;;;4.05;0.63;;;;;;;8.15;55.88;96591.63;5020997;28;20471;-77
2021/03/12 03:03:08;;;;;;;5.18;0.73;;;;;;;7.81;56.76;96594.34;5020241;28;20028;-76
2021/03/12 03:05:34;;;;;;;6.63;1.40;;;;;;;7.93;55.43;96600.19;5051921;28;20047;-76
2021/03/12 03:08:00;;;;;;;8.20;1.23;;;;;;;8.19;55.29;96600.50;5013235;28;20043;-76
2021/03/12 03:10:26;;;;;;;4.70;0.55;;;;;;;8.24;56.04;96613.50;5048219;28;20380;-76
2021/03/12 03:12:53;;;;;;;1.38;0.38;;;;;;;8.03;54.52;96597.72;5021186;28;20044;-76
2021/03/12 03:15:21;;;;;;;5.10;0.82;;;;;;;7.93;56.27;96600.19;5034608;28;20028;-76
2021/03/12 03:17:49;;;;;;;3.65;0.73;;;;;;;8.11;55.21;96611.31;5037989;28;20492;-77
2021/03/12 03:20:16;;;;;;;2.35;0.73;;;;;;;7.77;55.85;96608.81;5007349;28;20471;-77
2021/03/12 03:22:43;;;;;;;3.80;0.98;;;;;;;7.99;55.74;96607.03;5011334;28;20048;-76
2021/03/12 03:25:10;;;;;;;2.72;0.70;;;;;;;7.71;57.02;96620.13;5041073;28;20036;-76
2021/03/12 03:27:36;;;;;;;3.00;0.68;;;;;;;7.93;56.44;96607.97;5011579;28;20151;-77
2021/03/12 03:30:07;;;;;;;3.20;1.48;;;;;;;7.73;56.89;96623.25;5017626;28;20699;-76
2021/03/12 03:32:33;;;;;;;3.88;0.57;;;;;;;8.13;56.39;96617.03;5023797;28;20371;-76
2021/03/12 03:34:58;;;;;;;3.50;0.77;;;;;;;7.84;58.20;96615.38;5034376;28;20024;-77
2021/03/12 03:37:25;;;;;;;5.15;0.85;;;;;;;7.87;56.83;96624.50;5040712;28;20063;-77
2021/03/12 03:39:50;;;;;;;3.35;0.70;;;;;;;7.98;56.23;96615.03;5067056;28;20070;-76
2021/03/12 03:42:16;;;;;;;4.85;1.15;;;;;;;8.10;56.46;96617.50;5016031;28;20495;-76
2021/03/12 03:44:43;;;;;;;5.00;1.15;;;;;;;8.03;56.38;96628.84;5040085;28;20108;-76
2021/03/12 03:47:09;;;;;;;2.03;0.52;;;;;;;8.04;56.14;96624.44;5039154;28;20041;-77
2021/03/12 03:49:37;;;;;;;3.08;0.65;;;;;;;7.93;58.03;96639.06;5020237;28;20051;-77
2021/03/12 03:52:04;;;;;;;5.85;0.82;;;;;;;8.05;56.37;96637.19;5035624;28;20060;-76
2021/03/12 03:54:30;;;;;;;3.92;0.68;;;;;;;7.83;57.24;96638.94;5028463;28;20103;-77
2021/03/12 03:56:56;;;;;;;3.45;0.77;;;;;;;7.77;56.40;96634.75;5007557;28;20111;-76
2021/03/12 03:59:21;;;;;;;3.63;0.50;;;;;;;8.16;55.60;96642.47;5040378;28;20028;-76
2021/03/12 04:01:47;;;;;;;5.13;0.63;;;;;;;8.12;56.11;96638.78;5039965;28;20051;-77
2021/03/12 04:04:14;;;;;;;4.53;0.70;;;;;;;7.86;57.43;96647.06;5020703;28;20029;-77
2021/03/12 04:06:41;;;;;;;2.00;0.50;;;;;;;7.88;56.57;96642.41;4981651;28;20041;-78
2021/03/12 04:09:07;;;;;;;2.20;0.75;;;;;;;7.94;56.68;96645.84;5020427;28;20037;-77
2021/03/12 04:11:34;;;;;;;2.10;0.65;;;;;;;7.98;56.87;96646.13;5013964;28;20029;-77
2021/03/12 04:14:01;;;;;;;4.13;0.60;;;;;;;8.08;56.53;96654.03;5048186;28;20142;-77
2021/03/12 04:16:26;;;;;;;5.78;0.88;;;;;;;8.11;55.78;96648.38;5003972;28;20036;-77
2021/03/12 04:18:52;;;;;;;4.43;0.68;;;;;;;7.95;57.32;96660.38;5010864;28;20033;-76
2021/03/12 04:21:18;;;;;;;6.18;1.15;;;;;;;7.79;58.12;96656.00;4998635;28;20095;-77
2021/03/12 04:23:44;;;;;;;5.28;0.80;;;;;;;7.90;58.24;96646.56;5014834;28;20116;-77
2021/03/12 04:26:09;;;;;;;4.72;1.10;;;;;;;7.82;58.71;96647.75;5015332;28;20116;-77
2021/03/12 04:28:36;;;;;;;2.53;0.60;;;;;;;7.76;58.34;96649.50;5016455;28;20064;-77
2021/03/12 04:31:01;;;;;;;3.08;0.50;;;;;;;7.51;59.97;96660.28;4999007;28;20171;-76
2021/03/12 04:33:27;;;;;;;2.08;1.00;;;;;;;7.69;59.96;96664.41;5000575;28;20108;-77
2021/03/12 04:35:53;;;;;;;4.57;1.05;;;;;;;7.48;60.51;96679.66;4994815;28;20037;-76
2021/03/12 04:38:18;;;;;;;1.98;0.95;;;;;;;7.67;59.90;96669.84;5009815;28;20033;-76
2021/03/12 04:40:44;;;;;;;4.10;0.63;;;;;;;7.65;60.56;96671.88;5013396;28;20045;-77
2021/03/12 04:43:09;;;;;;;2.83;0.60;;;;;;;7.95;59.38;96670.75;5008976;28;20029;-77
2021/03/12 04:45:36;;;;;;;3.60;0.73;;;;;;;7.84;59.84;96666.44;5008176;28;20044;-77
2021/03/12 04:48:02;;;;;;;2.67;0.60;;;;;;;8.00;58.86;96667.41;5016210;28;20034;-77
2021/03/12 04:50:28;;;;;;;6.85;1.33;;;;;;;8.00;58.87;96665.63;5021753;28;20115;-77
2021/03/12 04:52:55;;;;;;;4.75;1.05;;;;;;;8.11;59.33;96670.94;5018906;28;20112;-77
2021/03/12 04:55:21;;;;;;;4.30;0.65;;;;;;;7.94;58.84;96669.16;5032343;28;20029;-77
2021/03/12 04:57:46;;;;;;;5.13;0.82;;;;;;;8.06;58.34;96685.41;5018731;28;20025;-76
2021/03/12 05:00:13;;;;;;;3.60;0.65;;;;;;;7.89;58.90;96684.66;5015422;28;20033;-76
2021/03/12 05:02:38;;;;;;;3.00;1.13;;;;;;;8.04;58.91;96687.44;5014772;28;20168;-76
2021/03/12 05:05:09;;;;;;;4.72;0.60;;;;;;;7.67;59.62;96687.97;5028644;28;20116;-76
2021/03/12 05:07:35;;;;;;;4.85;0.68;;;;;;;7.99;59.18;96689.19;5020961;28;20119;-76
2021/03/12 05:10:03;;;;;;;4.68;1.17;;;;;;;7.86;60.10;96696.31;5010322;28;20112;-77
2021/03/12 05:12:32;;;;;;;4.18;0.80;;;;;;;7.81;59.35;96695.41;5031655;28;20025;-77
2021/03/12 05:14:58;;;;;;;7.47;1.15;;;;;;;7.91;59.78;96703.34;5009015;28;20035;-77
2021/03/12 05:17:23;;;;;;;8.13;1.00;;;;;;;7.49;59.98;96701.19;5025750;28;20041;-77
2021/03/12 05:19:49;;;;;;;3.47;0.82;;;;;;;7.60;60.29;96702.13;5009282;28;20033;-77
2021/03/12 05:22:15;;;;;;;3.83;1.27;;;;;;;7.37;60.83;96697.88;5032117;28;20029;-77
2021/03/12 05:24:40;;;;;;;3.90;0.57;;;;;;;7.81;59.49;96704.00;5032418;28;20056;-77
2021/03/12 05:27:06;;;;;;;4.10;0.98;;;;;;;7.80;59.94;96699.81;4996815;28;20116;-76
2021/03/12 05:29:32;;;;;;;5.70;1.05;;;;;;;7.40;59.96;96703.41;5014957;28;20033;-77
2021/03/12 05:31:57;;;;;;;4.15;0.75;;;;;;;7.35;60.45;96707.69;5025446;28;20090;-77
2021/03/12 05:34:22;;;;;;;3.08;0.47;;;;;;;7.65;59.17;96715.94;5001234;28;20036;-77
2021/03/12 05:36:48;;;;;;;3.95;1.25;;;;;;;8.04;58.36;96720.38;5023934;28;20072;-77
2021/03/12 05:39:13;;;;;;;2.33;0.50;;;;;;;8.01;58.95;96719.03;4998420;28;20041;-77
2021/03/12 05:41:41;;;;;;;3.25;0.75;;;;;;;7.68;59.08;96725.81;5027164;28;20029;-77
2021/03/12 05:44:09;;;;;;;4.20;0.88;;;;;;;7.59;59.37;96732.44;5015959;28;20468;-77
2021/03/12 05:46:35;;;;;;;3.85;0.75;;;;;;;7.88;58.09;96733.13;4993345;28;20021;-77
2021/03/12 05:49:02;;;;;;;3.10;0.57;;;;;;;7.47;58.81;96729.91;5044879;28;20086;-76
2021/03/12 05:51:28;;;;;;;3.80;0.75;;;;;;;7.60;59.80;96720.25;5022546;28;20043;-77
2021/03/12 05:53:53;;;;;;;3.92;1.27;;;;;;;7.68;59.23;96728.41;5018637;28;20033;-77
2021/03/12 05:56:22;;;;;;;4.13;0.57;;;;;;;7.85;58.33;96738.78;5026854;28;20075;-77
2021/03/12 05:58:48;;;;;;;3.38;0.57;;;;;;;8.05;57.99;96735.69;4995939;28;20537;-77
2021/03/12 06:01:13;;;;;;;3.90;0.47;;;;;;;7.90;58.88;96735.47;5009871;28;20044;-77
2021/03/12 06:03:43;;;;;;;4.25;0.77;;;;;;;7.79;59.52;96746.72;5009638;28;20364;-77
2021/03/12 06:06:08;;;;;;;2.20;0.57;;;;;;;8.11;58.58;96746.91;5031119;28;20061;-77
2021/03/12 06:08:35;;;;;;;5.95;0.65;;;;;;;8.12;58.63;96760.66;5002716;28;20057;-77
2021/03/12 06:11:01;;;;;;;4.50;0.68;;;;;;;8.16;59.38;96761.78;5020458;28;20054;-77
2021/03/12 06:13:27;;;;;;;5.88;1.02;;;;;;;7.69;60.72;96750.72;5021535;28;20083;-76
2021/03/12 06:15:53;;;;;;;3.17;0.77;;;;;;;7.54;61.21;96755.69;5021804;28;20034;-77
2021/03/12 06:18:26;;;;;;;3.83;0.73;;;;;;;7.70;61.07;96754.09;5028375;28;20037;-77
2021/03/12 06:20:54;;;;;;;3.92;0.63;;;;;;;7.43;62.43;96761.69;5022156;28;20033;-77
2021/03/12 06:23:42;;;;;;;1.98;0.52;;;;;;;7.48;61.97;96764.38;5034898;28;20549;-77
2021/03/12 06:26:08;;;;;;;2.72;0.70;;;;;;;7.89;61.10;96767.59;5002782;28;20025;-77
2021/03/12 06:28:34;;;;;;;7.63;1.17;;;;;;;7.90;61.83;96765.78;4984885;28;20060;-77
2021/03/12 06:31:00;;;;;;;3.55;0.90;;;;;;;7.72;62.13;96752.06;5026628;28;20107;-77
2021/03/12 06:33:31;;;;;;;5.70;1.25;;;;;;;7.64;61.61;96755.84;5034153;28;20033;-77
2021/03/12 06:35:58;;;;;;;3.58;1.90;;;;;;;7.46;62.14;96753.47;5002588;28;20024;-77
2021/03/12 06:38:24;;;;;;;1.40;0.95;;;;;;;7.53;62.37;96759.28;5013586;28;20079;-77
2021/03/12 06:40:50;;;;;;;4.38;0.55;;;;;;;7.55;62.43;96746.88;5030601;28;20543;-77
2021/03/12 06:43:23;;;;;;;3.92;1.08;;;;;;;7.61;62.08;96766.66;5035362;28;20372;-77
2021/03/12 06:46:01;;;;;;;4.78;0.50;;;;;;;7.59;61.25;96766.13;5000342;28;20036;-77
2021/03/12 06:48:32;;;;;;;2.95;0.80;;;;;;;7.88;60.38;96768.59;5029516;28;20369;-77
2021/03/12 06:51:01;;;;;;;2.80;0.50;;;;;;;7.91;60.06;96775.16;5011738;28;20056;-77
2021/03/12 06:53:31;;;;;;;5.10;0.80;;;;;;;7.90;59.74;96768.38;5036086;28;20037;-77
2021/03/12 06:56:03;;;;;;;5.20;0.70;;;;;;;7.90;59.90;96769.19;5018469;28;20121;-77
2021/03/12 06:58:28;;;;;;;7.05;1.30;;;;;;;8.18;59.37;96777.88;5021526;28;20053;-77
2021/03/12 07:00:54;;;;;;;3.55;1.50;;;;;;;8.20;59.38;96770.63;5018239;28;20063;-77
2021/03/12 07:03:26;;;;;;;2.78;0.40;;;;;;;8.09;60.39;96771.50;5013023;28;20388;-77
2021/03/12 07:06:05;;;;;;;3.70;0.52;;;;;;;8.07;59.68;96767.34;5006492;28;20035;-77
2021/03/12 07:08:35;;;;;;;10.48;1.15;;;;;;;7.68;60.82;96769.09;5025504;28;20060;-77
2021/03/12 07:11:01;;;;;;;3.47;0.70;;;;;;;8.17;59.05;96769.28;5018160;28;20128;-77
2021/03/12 07:13:27;;;;;;;6.15;0.90;;;;;;;7.90;60.23;96755.41;5015600;28;20143;-77
2021/03/12 07:15:55;;;;;;;4.35;0.60;;;;;;;8.09;58.04;96761.13;5032040;28;20086;-77
2021/03/12 07:18:22;;;;;;;6.68;1.60;;;;;;;8.36;56.94;96769.00;5069517;28;20033;-77
2021/03/12 07:20:48;;;;;;;4.68;1.27;;;;;;;8.31;58.95;96768.94;5059257;28;20073;-77
2021/03/12 07:23:24;;;;;;;4.95;0.95;;;;;;;8.00;57.60;96769.34;5041555;28;20059;-77
2021/03/12 07:25:51;;;;;;;3.13;0.50;;;;;;;8.55;57.01;96772.94;5036106;28;20398;-77
2021/03/12 07:28:16;;;;;;;5.03;1.30;;;;;;;8.71;57.67;96768.72;5044415;28;20479;-77
2021/03/12 07:30:43;;;;;;;2.63;0.57;;;;;;;8.73;56.79;96779.63;5003222;28;20028;-77
2021/03/12 07:33:09;;;;;;;5.07;1.10;;;;;;;8.71;57.47;96773.13;5013085;28;20024;-77
2021/03/12 07:35:37;;;;;;;2.72;0.80;;;;;;;8.72;56.92;96777.28;5047558;28;20085;-76
2021/03/12 07:38:05;;;;;;;2.75;0.38;;;;;;;8.32;57.60;96778.31;5031229;28;20268;-77
2021/03/12 07:40:31;;;;;;;3.45;0.93;;;;;;;8.70;56.71;96782.69;5030541;28;20491;-77
2021/03/12 07:42:56;;;;;;;4.03;1.05;;;;;;;8.53;57.50;96781.97;5036158;28;20029;-77
2021/03/12 07:45:22;;;;;;;3.63;1.17;;;;;;;8.63;57.37;96779.50;5027381;28;20376;-77
2021/03/12 07:47:48;;;;;;;3.60;0.60;;;;;;;9.07;57.64;96781.31;5035252;28;20060;-77
2021/03/12 07:50:35;;;;;;;1.90;0.60;;;;;;;8.78;57.45;96790.06;5051248;28;20035;-77
2021/03/12 07:53:02;;;;;;;3.78;0.82;;;;;;;9.09;55.89;96779.25;5041523;28;20037;-77
2021/03/12 07:55:36;;;;;;;5.43;1.08;;;;;;;8.83;56.01;96796.38;5046058;28;20387;-77
2021/03/12 07:58:03;;;;;;;2.78;0.52;;;;;;;9.17;56.19;96789.22;5048337;28;20037;-76
2021/03/12 08:00:29;;;;;;;5.75;1.42;;;;;;;9.25;56.17;96798.38;5009048;28;20067;-76
2021/03/12 08:02:57;;;;;;;5.75;1.35;;;;;;;9.38;55.36;96788.38;5024821;28;20024;-77
2021/03/12 08:05:49;;;;;;;4.55;0.68;;;;;;;9.11;55.18;96798.75;5005489;28;20043;-77
2021/03/12 08:08:30;;;;;;;5.82;0.60;;;;;;;9.30;54.12;96801.00;5013556;28;21318;-77
2021/03/12 08:11:19;;;;;;;4.15;0.45;;;;;;;9.25;53.42;96806.94;5036352;28;20111;-76
2021/03/12 08:13:45;;;;;;;4.85;0.73;;;;;;;9.51;52.48;96813.19;5040991;28;20552;-77
2021/03/12 08:16:11;;;;;;;4.80;0.52;;;;;;;9.66;52.92;96829.94;5025046;28;20107;-76
2021/03/12 08:18:36;;;;;;;4.80;0.52;;;;;;;9.31;54.02;96823.38;5042295;28;20031;-77
2021/03/12 08:21:41;;;;;;;4.35;1.23;;;;;;;9.38;53.45;96829.16;5049919;28;20454;-77
2021/03/12 08:24:48;;;;;;;3.20;0.50;;;;;;;9.63;54.48;96835.63;5052559;28;20052;-77
2021/03/12 08:27:38;;;;;;;3.45;0.68;;;;;;;9.37;55.37;96836.19;5051669;28;20033;-77
2021/03/12 08:30:09;;;;;;;2.83;0.60;;;;;;;9.97;53.51;96835.38;5028128;28;20017;-77
2021/03/12 08:32:35;;;;;;;4.35;0.98;;;;;;;10.10;52.96;96832.38;5027539;28;20028;-77
2021/03/12 08:35:01;;;;;;;5.57;0.73;;;;;;;10.15;53.85;96829.81;5047700;28;20048;-77
2021/03/12 08:37:27;;;;;;;4.70;1.17;;;;;;;10.20;53.35;96834.28;5044717;28;20040;-77
2021/03/12 08:40:15;;;;;;;4.18;1.33;;;;;;;10.12;52.85;96828.47;5056180;28;20037;-76
2021/03/12 08:43:08;;;;;;;8.25;1.33;;;;;;;9.86;54.80;96830.09;5049897;28;20059;-77
2021/03/12 08:45:40;;;;;;;4.38;0.63;;;;;;;10.30;51.97;96829.91;5048161;28;20115;-77
2021/03/12 08:48:15;;;;;;;2.90;0.80;;;;;;;10.53;53.08;96833.19;5051964;28;20057;-77
2021/03/12 08:50:51;;;;;;;4.93;0.65;;;;;;;9.92;53.26;96831.72;5029400;28;20049;-76
2021/03/12 08:53:17;;;;;;;6.10;1.02;;;;;;;10.13;54.13;96821.47;5032134;28;20143;-77
2021/03/12 08:55:43;;;;;;;7.07;1.40;;;;;;;10.11;53.62;96820.94;5049488;28;20111;-77
2021/03/12 08:58:20;;;;;;;3.92;1.17;;;;;;;10.25;51.99;96826.50;5031361;28;20066;-76
2021/03/12 09:00:52;;;;;;;4.68;1.05;;;;;;;9.83;54.35;96824.63;5029340;28;20117;-77
2021/03/12 09:03:19;;;;;;;2.97;0.50;;;;;;;10.44;51.56;96813.91;5017208;28;20033;-77
2021/03/12 09:05:46;;;;;;;4.97;0.70;;;;;;;10.52;52.69;96810.81;5027023;28;20037;-77
2021/03/12 09:08:15;;;;;;;3.08;0.57;;;;;;;10.81;51.15;96800.00;5024579;28;20443;-76
2021/03/12 09:10:42;;;;;;;4.07;0.60;;;;;;;11.20;50.59;96797.78;5018039;28;20552;-76
2021/03/12 09:13:16;;;;;;;5.43;1.13;;;;;;;10.94;51.38;96796.94;5036157;28;20036;-76
2021/03/12 09:15:42;;;;;;;3.20;0.75;;;;;;;11.05;50.21;96788.13;5036898;28;20077;-75
2021/03/12 09:18:07;;;;;;;5.25;0.80;;;;;;;11.52;49.95;96788.19;5048765;28;20040;-76
2021/03/12 09:20:33;;;;;;;5.10;1.67;;;;;;;11.67;49.60;96772.56;5025223;28;20052;-76
2021/03/12 09:22:59;;;;;;;2.90;0.60;;;;;;;11.62;48.24;96783.75;5020276;28;20486;-76
2021/03/12 09:25:29;;;;;;;5.05;0.68;;;;;;;11.76;47.81;96786.63;5020004;28;20020;-76
2021/03/12 09:28:14;;;;;;;6.03;1.20;;;;;;;11.47;51.36;96782.97;5032171;28;20107;-76
2021/03/12 09:30:44;;;;;;;5.47;0.90;;;;;;;11.29;50.00;96782.41;5013851;28;20499;-76
2021/03/12 09:33:26;;;;;;;4.85;0.65;;;;;;;11.70;47.46;96781.69;5064653;28;20057;-76
2021/03/12 09:35:52;;;;;;;6.88;0.80;;;;;;;11.85;49.13;96779.06;5052836;28;20360;-76
2021/03/12 09:38:47;;;;;;;3.70;0.80;;;;;;;11.50;49.72;96772.81;5039645;28;20042;-77
2021/03/12 09:41:20;;;;;;;5.07;0.90;;;;;;;11.53;48.88;96767.09;5016397;28;20071;-77
2021/03/12 09:43:58;;;;;;;5.10;1.52;;;;;;;12.21;47.62;96770.44;5043695;28;20074;-76
2021/03/12 09:46:48;;;;;;;6.75;1.85;;;;;;;12.18;47.27;96772.56;5040027;28;20041;-76
2021/03/12 09:49:22;;;;;;;4.57;0.70;;;;;;;11.58;48.36;96763.69;4993448;28;20049;-76
2021/03/12 09:51:52;;;;;;;3.72;0.80;;;;;;;11.52;46.41;96775.94;5042145;28;20071;-76
2021/03/12 09:54:18;;;;;;;4.25;1.30;;;;;;;11.18;47.67;96749.56;5037489;28;20531;-76
2021/03/12 09:56:48;;;;;;;4.93;1.02;;;;;;;11.15;49.20;96761.28;5026801;28;20033;-76
2021/03/12 09:59:16;;;;;;;5.32;1.35;;;;;;;11.39;49.62;96755.59;5024692;28;20029;-76
2021/03/12 10:01:42;;;;;;;3.67;1.20;;;;;;;11.31;49.71;96769.94;5048612;28;20036;-76
2021/03/12 10:04:30;;;;;;;5.70;1.08;;;;;;;10.87;49.44;96765.13;5006855;28;20538;-76
2021/03/12 10:07:11;;;;;;;3.67;1.08;;;;;;;10.63;49.62;96759.59;5048737;28;20167;-75
2021/03/12 10:09:43;;;;;;;4.95;1.23;;;;;;;10.98;50.83;96756.28;5040513;28;20498;-76
2021/03/12 10:12:26;;;;;;;5.75;1.00;;;;;;;10.58;51.26;96751.75;5012716;28;20028;-76
2021/03/12 10:14:52;;;;;;;4.15;1.00;;;;;;;10.59;49.79;96748.09;5024045;28;20040;-76
2021/03/12 10:17:22;;;;;;;4.22;1.08;;;;;;;10.81;50.46;96750.50;5044113;28;20075;-76
2021/03/12 10:19:52;;;;;;;6.63;1.42;;;;;;;10.51;50.56;96748.59;5046954;28;20040;-76
2021/03/12 10:22:26;;;;;;;6.60;1.70;;;;;;;11.05;48.21;96738.63;5048085;28;20043;-76
2021/03/12 10:25:14;;;;;;;5.95;1.10;;;;;;;11.14;46.92;96743.28;5034970;28;20395;-76
2021/03/12 10:28:03;;;;;;;9.32;1.58;;;;;;;10.90;46.69;96749.00;5050955;28;20108;-76
2021/03/12 10:30:34;;;;;;;3.88;0.85;;;;;;;10.45;47.10;96748.56;5031512;28;20048;-75
2021/03/12 10:33:03;;;;;;;5.10;0.85;;;;;;;10.95;47.63;96751.63;5008706;28;20036;-76
2021/03/12 10:35:40;;;;;;;6.97;0.90;;;;;;;10.53;47.27;96762.13;5022704;28;20068;-75
2021/03/12 10:38:15;;;;;;;4.47;0.70;;;;;;;10.01;51.11;96761.84;5032469;28;20025;-76
2021/03/12 10:40:41;;;;;;;5.82;0.93;;;;;;;10.39;50.84;96764.41;5016013;28;20444;-75
2021/03/12 10:43:17;;;;;;;2.35;0.70;;;;;;;10.13;52.32;96762.41;5019789;28;20032;-76
2021/03/12 10:46:12;;;;;;;4.70;0.70;;;;;;;9.51;51.29;96743.00;5028779;28;20028;-76
2021/03/12 10:48:42;;;;;;;3.97;0.85;;;;;;;9.39;53.75;96768.38;5038787;28;20036;-75
2021/03/12 10:51:09;;;;;;;5.45;0.90;;;;;;;9.22;55.54;96762.47;5039462;28;20025;-76
2021/03/12 10:53:43;;;;;;;5.90;1.08;;;;;;;9.23;57.03;96764.06;5015104;28;20046;-76
2021/03/12 10:56:09;;;;;;;3.60;0.65;;;;;;;9.37;57.99;96775.63;5031774;28;20075;-76
2021/03/12 10:58:36;;;;;;;8.75;1.10;;;;;;;9.18;58.64;96781.19;5019330;28;20049;-76
2021/03/12 11:01:26;;;;;;;7.68;0.82;;;;;;;8.83;59.03;96767.81;5032505;28;20492;-76
2021/03/12 11:04:01;;;;;;;4.28;1.10;;;;;;;9.17;59.05;96760.63;5017973;28;20418;-76
2021/03/12 11:06:31;;;;;;;4.47;1.05;;;;;;;9.58;58.60;96750.59;5012393;28;20037;-76
2021/03/12 11:08:56;;;;;;;4.78;1.02;;;;;;;10.34;59.02;96740.97;5028913;28;20473;-76
2021/03/12 11:11:22;;;;;;;7.10;1.17;;;;;;;10.92;58.63;96733.88;5005149;28;20094;-76
2021/03/12 11:13:49;;;;;;;5.35;0.95;;;;;;;11.64;55.72;96726.13;5013581;28;20217;-76
2021/03/12 11:16:16;;;;;;;4.82;1.15;;;;;;;11.99;53.71;96732.38;5040217;28;20025;-76
2021/03/12 11:18:43;;;;;;;3.97;0.73;;;;;;;12.25;52.80;96722.69;5029919;28;20055;-76
2021/03/12 11:21:11;;;;;;;4.80;0.95;;;;;;;12.64;51.96;96729.06;4996255;28;20025;-76
2021/03/12 11:23:38;;;;;;;6.05;0.73;;;;;;;13.23;46.25;96719.56;5024511;28;20025;-76
2021/03/12 11:26:04;;;;;;;3.95;0.77;;;;;;;13.70;47.83;96704.34;5021015;28;20033;-76
2021/03/12 11:28:30;;;;;;;4.78;1.38;;;;;;;13.56;45.05;96704.97;5002429;28;20025;-75
2021/03/12 11:30:57;;;;;;;3.10;0.93;;;;;;;13.71;45.74;96713.72;5019556;28;20044;-76
2021/03/12 11:33:24;;;;;;;4.72;0.63;;;;;;;13.11;46.10;96705.03;5018327;28;20071;-76
2021/03/12 11:35:50;;;;;;;3.13;0.95;;;;;;;13.71;43.91;96713.72;4993095;28;20051;-75
2021/03/12 11:38:15;;;;;;;2.78;0.57;;;;;;;13.85;42.43;96706.81;5041163;28;20037;-76
2021/03/12 11:40:41;;;;;;;5.35;0.88;;;;;;;14.21;41.26;96704.59;4992224;28;20110;-76
2021/03/12 11:43:07;;;;;;;5.70;1.02;;;;;;;14.44;42.61;96702.25;5013125;28;20056;-76
2021/03/12 11:45:33;;;;;;;5.47;0.65;;;;;;;14.89;42.10;96691.47;5030595;28;20091;-76
2021/03/12 11:47:59;;;;;;;5.93;1.67;;;;;;;15.00;39.83;96687.66;4998185;28;20426;-76